Main page
METAR-TAF:

METAR-TAF

Airports :

Nadi International Airport

Nadi, Fiji

latitude: 17-45S, longitude: 177-27E, elevation: 13 m

Current weather observation

The report was made 12 minutes ago, at 00:00 UTC
Wind 7 kt from the West/Southwest
Temperature 27°C
Humidity 58%
Pressure 1014 hPa
Visibility 10 km or more
Scattered clouds at a height of 3000 ft

METAR: NFFN 180000Z 25007KT 9999 SCT030 27/18 Q1014 NOSIG

Time: 12:12 (00:12 UTC)

Forecast

The report was made 46 minutes ago, at 23:26 UTC
Forecast valid from 18 at 00 UTC to 18 at 24 UTC
Wind 10 kt from the West
Visibility 10 km or more
Few clouds at a height of 2400 ft
Scattered clouds at a height of 5000 ft
Becoming
from 18 at 04 UTC to 18 at 06 UTC
Wind 6 kt from the East
Becoming
from 18 at 23 UTC to 18 at 24 UTC
Wind 10 kt from the West

TAF: NFFN 172326Z 1800/1824 27010KT 9999 FEW024 SCT050 BECMG 1804/1806 09006KT BECMG 1823/1824 27010KT

Weather observations and forecasts of more than 4000 airports (METAR and TAF reports).

The available stations are represented by yellow and red dots on the map.

Hover mouse over dot to see the name of the station.

Then click to see weather observations and forecasts.

To change the map : click on the green buttons with a black cross to zoom in, on the green button with a dash to zoom out, or on the green arrows for adjacent maps.


METAR-TAF: